Time;durP1;ratioP1;P1;durP2;ratioP2;P2;SDS_P1;SDS_P2;PMS_P1;PMS_P2;Temp;Humidity;BMP_temperature;BMP_pressure;BME280_temperature;BME280_humidity;BME280_pressure;Samples;Min_cycle;Max_cycle;Signal;HPM_P1;HPM_P2
2023/01/09 00:01:14;;;;;;;1.02;0.80;;;;;;;5.88;100.00;99331.63;5015808;28;20037;-82
2023/01/09 00:03:40;;;;;;;1.85;0.70;;;;;;;5.83;100.00;99320.72;5048344;28;20045;-82
2023/01/09 00:06:42;;;;;;;1.38;0.80;;;;;;;5.80;100.00;99326.19;5046027;28;20374;-82
2023/01/09 00:09:43;;;;;;;2.92;1.00;;;;;;;5.78;100.00;99333.31;5045088;28;20032;-82
2023/01/09 00:12:44;;;;;;;1.55;0.70;;;;;;;5.71;100.00;99342.59;5030749;28;20041;-81
2023/01/09 00:15:43;;;;;;;;;;;;;;;;;;;;;
2023/01/09 00:18:36;;;;;;;2.15;0.90;;;;;;;5.61;100.00;99338.09;5034038;28;20032;-82
2023/01/09 00:21:09;;;;;;;1.15;0.80;;;;;;;5.52;100.00;99357.03;5015725;28;20085;-82
2023/01/09 00:24:34;;;;;;;2.47;0.90;;;;;;;5.54;100.00;99368.19;5011722;28;20041;-81
2023/01/09 00:27:09;;;;;;;2.42;0.98;;;;;;;5.47;100.00;99360.94;5039850;28;20117;-81
2023/01/09 00:29:45;;;;;;;1.40;0.85;;;;;;;5.41;100.00;99362.25;5030029;28;20041;-81
2023/01/09 00:32:46;;;;;;;;;;;;;;;;;;;;;
2023/01/09 00:42:55;;;;;;;4.05;1.00;;;;;;;5.30;100.00;99360.47;5000878;28;20423;-82
2023/01/09 00:48:56;;;;;;;1.77;1.10;;;;;;;5.14;100.00;99359.13;4992952;28;20093;-81
2023/01/09 00:52:11;;;;;;;3.28;1.30;;;;;;;5.12;100.00;99350.59;4998241;28;20049;-82
2023/01/09 01:16:05;;;;;;;4.55;1.55;;;;;;;4.91;100.00;99364.28;4870214;29;20025;-81
2023/01/09 01:22:31;;;;;;;3.42;1.23;;;;;;;4.85;100.00;99356.94;4839984;29;20439;-81
2023/01/09 01:32:05;;;;;;;4.70;1.75;;;;;;;4.79;100.00;99365.19;4900925;28;20091;-82
2023/01/09 01:35:06;;;;;;;5.03;1.38;;;;;;;4.81;100.00;99378.97;4957290;28;20049;-83
2023/01/09 01:37:35;;;;;;;4.90;1.45;;;;;;;4.74;100.00;99372.50;4934997;29;20050;-83
2023/01/09 01:40:33;;;;;;;5.82;1.70;;;;;;;4.73;100.00;99381.25;4949010;28;20458;-83
2023/01/09 01:43:51;;;;;;;7.20;1.60;;;;;;;4.74;100.00;99388.13;4995158;28;20061;-83
2023/01/09 01:46:51;;;;;;;3.13;1.50;;;;;;;4.69;100.00;99379.84;4948688;29;20065;-81
2023/01/09 01:49:20;;;;;;;5.25;1.80;;;;;;;4.62;100.00;99389.88;4931256;29;20042;-81
2023/01/09 01:51:58;;;;;;;3.10;1.80;;;;;;;4.66;100.00;99398.28;4951389;28;20411;-81
2023/01/09 01:57:44;;;;;;;3.20;1.50;;;;;;;4.57;100.00;99385.94;5008853;28;20128;-81
2023/01/09 02:00:33;;;;;;;2.70;1.50;;;;;;;4.53;100.00;99394.94;5010673;28;20383;-81
2023/01/09 02:03:17;;;;;;;4.57;1.73;;;;;;;4.50;100.00;99395.16;5012055;28;20042;-81
2023/01/09 02:05:54;;;;;;;4.88;1.70;;;;;;;4.46;100.00;99391.94;5010111;28;20517;-81
2023/01/09 02:08:34;;;;;;;3.42;1.70;;;;;;;4.47;100.00;99397.97;5007805;28;20144;-82
2023/01/09 02:11:40;;;;;;;6.15;2.10;;;;;;;4.45;100.00;99403.31;5005842;28;20499;-81
2023/01/09 02:14:32;;;;;;;5.45;2.05;;;;;;;4.42;100.00;99395.72;4977383;28;20077;-81
2023/01/09 02:17:50;;;;;;;7.78;2.00;;;;;;;4.43;100.00;99396.53;5023332;28;20045;-82
2023/01/09 02:21:13;;;;;;;6.28;2.10;;;;;;;4.40;100.00;99397.56;5043946;28;20198;-81
2023/01/09 02:23:38;;;;;;;4.30;2.00;;;;;;;4.35;100.00;99391.84;5065549;28;20029;-81
2023/01/09 02:26:31;;;;;;;5.90;1.90;;;;;;;4.35;100.00;99397.06;5055237;28;20029;-80
2023/01/09 02:32:39;;;;;;;5.00;2.20;;;;;;;4.30;100.00;99391.34;5055205;28;20039;-81
2023/01/09 02:35:55;;;;;;;3.83;2.15;;;;;;;4.29;100.00;99393.13;5071032;28;20032;-81
2023/01/09 02:39:10;;;;;;;7.22;2.10;;;;;;;4.27;100.00;99389.81;4976768;28;20495;-81
2023/01/09 02:42:11;;;;;;;5.93;2.25;;;;;;;4.21;100.00;99385.03;5009294;28;20065;-81
2023/01/09 02:48:53;;;;;;;4.50;2.13;;;;;;;4.17;100.00;99387.97;5001145;28;20125;-81
2023/01/09 02:55:49;;;;;;;5.32;2.05;;;;;;;4.15;100.00;99384.66;4894931;29;20036;-81
2023/01/09 02:58:51;;;;;;;6.05;2.25;;;;;;;4.13;100.00;99376.13;4904290;28;20055;-81
2023/01/09 03:02:06;;;;;;;5.82;2.20;;;;;;;4.11;100.00;99373.63;4967446;28;20155;-81
2023/01/09 03:08:35;;;;;;;7.10;2.80;;;;;;;4.11;100.00;99363.22;5068517;28;20036;-81
2023/01/09 03:11:37;;;;;;;7.38;2.97;;;;;;;4.08;100.00;99360.84;5050806;28;20127;-81
2023/01/09 03:18:07;;;;;;;10.20;2.90;;;;;;;4.01;100.00;99365.66;5011749;28;20502;-81
2023/01/09 03:24:13;;;;;;;6.40;3.03;;;;;;;4.03;100.00;99381.97;4983343;28;20045;-82
2023/01/09 03:26:42;;;;;;;5.95;2.70;;;;;;;4.01;100.00;99385.63;5044940;28;20043;-82
2023/01/09 03:29:36;;;;;;;;;;;;;;;;;;;;;
2023/01/09 03:32:26;;;;;;;;;;;;;;;;;;;;;
2023/01/09 03:35:06;;;;;;;9.27;3.25;;;;;;;3.98;100.00;99384.06;5043903;28;20037;-82
2023/01/09 03:38:22;;;;;;;11.32;3.13;;;;;;;4.02;100.00;99375.13;5041272;28;20041;-82
2023/01/09 03:40:54;;;;;;;8.13;3.28;;;;;;;4.01;100.00;99378.66;4992031;28;20042;-82
2023/01/09 03:43:51;;;;;;;8.95;3.35;;;;;;;4.02;100.00;99377.72;5008063;28;20514;-82
2023/01/09 03:46:43;;;;;;;10.65;3.42;;;;;;;4.06;100.00;99376.56;5006278;28;20521;-82
2023/01/09 03:49:58;;;;;;;8.27;2.90;;;;;;;4.05;100.00;99385.31;5013196;28;20037;-82
2023/01/09 03:56:09;;;;;;;6.43;2.83;;;;;;;4.11;100.00;99373.63;5002600;28;20038;-82
2023/01/09 03:59:00;;;;;;;6.38;2.67;;;;;;;4.13;100.00;99387.38;5025817;28;20091;-82
2023/01/09 04:02:09;;;;;;;10.07;2.92;;;;;;;4.17;100.00;99382.75;5036251;28;20054;-82
2023/01/09 04:04:49;;;;;;;8.88;2.88;;;;;;;4.15;100.00;99382.03;5028996;28;20044;-81
2023/01/09 04:07:15;;;;;;;9.07;2.92;;;;;;;4.16;100.00;99381.94;5025111;28;20028;-82
2023/01/09 04:09:50;;;;;;;8.38;2.28;;;;;;;4.19;100.00;99379.13;5025510;28;20103;-81
2023/01/09 04:12:24;;;;;;;9.40;2.65;;;;;;;4.24;100.00;99379.63;5024805;28;20037;-81
2023/01/09 04:15:07;;;;;;;8.75;2.90;;;;;;;4.28;100.00;99383.66;5050426;28;20039;-81
2023/01/09 04:21:36;;;;;;;6.25;2.20;;;;;;;4.40;100.00;99382.81;5026714;28;20273;-81
2023/01/09 04:24:21;;;;;;;8.38;2.47;;;;;;;4.47;100.00;99384.97;5015828;28;20072;-82
2023/01/09 04:30:44;;;;;;;8.30;2.33;;;;;;;4.56;100.00;99384.28;5028279;28;20539;-82
2023/01/09 04:33:10;;;;;;;7.07;2.33;;;;;;;4.61;100.00;99380.41;5031676;28;20044;-82
2023/01/09 04:35:51;;;;;;;7.47;2.22;;;;;;;4.66;100.00;99370.47;5028727;28;20037;-81
2023/01/09 04:38:42;;;;;;;9.68;2.35;;;;;;;4.70;100.00;99382.31;5020033;28;20520;-81
2023/01/09 04:41:47;;;;;;;6.88;2.20;;;;;;;4.76;100.00;99375.81;5012911;28;20165;-81
2023/01/09 04:44:58;;;;;;;10.57;2.30;;;;;;;4.79;100.00;99379.97;5056042;28;20485;-82
2023/01/09 04:47:26;;;;;;;10.80;2.50;;;;;;;4.81;100.00;99381.56;5018811;28;20045;-81
2023/01/09 04:49:51;;;;;;;10.63;2.30;;;;;;;4.83;100.00;99382.28;5015132;28;20059;-81
2023/01/09 04:52:28;;;;;;;11.45;2.53;;;;;;;4.88;100.00;99382.75;5034533;28;20481;-81
2023/01/09 04:58:58;;;;;;;7.70;2.28;;;;;;;4.93;100.00;99378.03;5024860;28;20506;-81
2023/01/09 05:01:29;;;;;;;11.27;2.38;;;;;;;4.97;100.00;99374.25;5019802;28;20054;-81
2023/01/09 05:03:55;;;;;;;6.97;2.28;;;;;;;4.98;100.00;99378.53;5028742;28;20045;-81
2023/01/09 05:06:20;;;;;;;7.15;2.10;;;;;;;5.00;100.00;99373.19;5061111;28;20036;-81
2023/01/09 05:08:46;;;;;;;9.60;2.28;;;;;;;5.03;100.00;99378.19;5069960;28;20075;-81
2023/01/09 05:15:47;;;;;;;11.45;2.65;;;;;;;5.13;100.00;99379.16;4989700;28;20124;-81
2023/01/09 05:20:59;;;;;;;11.50;2.50;;;;;;;5.17;100.00;99377.13;5061682;28;20413;-82
2023/01/09 05:23:59;;;;;;;10.65;2.75;;;;;;;5.19;100.00;99367.41;5049715;28;20036;-81
2023/01/09 05:26:25;;;;;;;7.28;2.50;;;;;;;5.23;100.00;99366.28;5030649;28;20036;-81
2023/01/09 05:28:55;;;;;;;12.48;3.20;;;;;;;5.26;100.00;99363.44;5046294;28;20049;-81
2023/01/09 05:34:17;;;;;;;11.30;2.88;;;;;;;5.33;100.00;99375.06;5047048;28;20488;-81
2023/01/09 05:36:46;;;;;;;11.40;3.00;;;;;;;5.33;100.00;99365.44;5049102;28;20036;-81
2023/01/09 05:39:38;;;;;;;12.00;3.38;;;;;;;5.34;100.00;99356.69;5050211;28;20049;-81
2023/01/09 05:42:07;;;;;;;13.18;2.80;;;;;;;5.41;100.00;99359.63;5049411;28;20068;-81
2023/01/09 05:44:58;;;;;;;10.85;2.70;;;;;;;5.44;100.00;99362.00;5031808;28;20041;-81
2023/01/09 05:47:32;;;;;;;11.90;3.00;;;;;;;5.49;100.00;99362.50;4971444;28;20057;-81
2023/01/09 05:50:00;;;;;;;9.07;2.60;;;;;;;5.51;100.00;99354.53;4965897;28;20065;-81
2023/01/09 05:52:25;;;;;;;8.60;2.60;;;;;;;5.53;100.00;99350.03;5015201;28;20094;-81
2023/01/09 05:54:51;;;;;;;7.30;2.20;;;;;;;5.54;100.00;99349.09;5048707;28;20029;-81
2023/01/09 05:57:19;;;;;;;12.25;2.85;;;;;;;5.56;100.00;99353.22;5036896;28;20396;-81
2023/01/09 05:59:47;;;;;;;7.60;2.55;;;;;;;5.60;100.00;99351.22;5047130;28;20036;-81
2023/01/09 06:02:51;;;;;;;12.93;2.70;;;;;;;5.63;100.00;99351.84;5031376;28;20037;-81
2023/01/09 06:05:40;;;;;;;11.02;2.88;;;;;;;5.65;100.00;99363.00;5056444;28;20079;-81
2023/01/09 06:08:14;;;;;;;9.05;2.33;;;;;;;5.69;100.00;99354.91;5045417;28;20037;-81
2023/01/09 06:10:39;;;;;;;9.85;2.47;;;;;;;5.69;100.00;99347.91;5047874;28;20055;-81
2023/01/09 06:13:05;;;;;;;13.30;2.78;;;;;;;5.74;100.00;99339.72;5063385;28;20477;-81
2023/01/09 06:15:30;;;;;;;12.80;3.13;;;;;;;5.75;100.00;99344.00;5063407;28;20111;-81
2023/01/09 06:17:59;;;;;;;9.55;2.80;;;;;;;5.79;100.00;99350.63;5067738;28;20067;-81
2023/01/09 06:20:27;;;;;;;14.60;2.95;;;;;;;5.80;100.00;99344.47;5047878;28;20037;-81
2023/01/09 06:22:53;;;;;;;16.33;2.85;;;;;;;5.82;100.00;99348.63;5045123;28;20040;-81
2023/01/09 06:25:25;;;;;;;11.80;2.85;;;;;;;5.83;100.00;99350.28;5034611;28;20048;-81
2023/01/09 06:27:51;;;;;;;11.73;2.65;;;;;;;5.87;100.00;99358.69;5051918;28;20065;-81
2023/01/09 06:30:17;;;;;;;10.25;2.60;;;;;;;5.88;100.00;99352.53;5057668;28;20074;-82
2023/01/09 06:35:52;;;;;;;9.68;2.55;;;;;;;5.94;100.00;99367.72;5011837;28;20033;-81
2023/01/09 06:38:17;;;;;;;10.95;2.42;;;;;;;5.95;100.00;99361.56;5071990;28;20115;-81
2023/01/09 06:41:05;;;;;;;12.60;2.50;;;;;;;5.98;100.00;99361.31;5058713;28;20472;-82
2023/01/09 06:43:31;;;;;;;10.10;2.90;;;;;;;6.03;100.00;99364.41;5032094;28;20041;-81
2023/01/09 06:45:58;;;;;;;9.57;2.50;;;;;;;6.07;100.00;99365.00;5046305;28;20032;-82
2023/01/09 06:48:24;;;;;;;9.52;2.47;;;;;;;6.10;100.00;99365.59;5050857;28;20068;-81
2023/01/09 06:51:06;;;;;;;;;;;;;;;;;;;;;
2023/01/09 06:53:35;;;;;;;8.98;2.20;;;;;;;6.13;100.00;99369.72;5049748;28;20033;-82
2023/01/09 06:56:03;;;;;;;8.15;2.35;;;;;;;6.17;100.00;99361.53;5037170;28;20033;-82
2023/01/09 06:58:29;;;;;;;9.48;2.55;;;;;;;6.20;100.00;99366.50;5029597;28;20448;-81
2023/01/09 07:00:55;;;;;;;11.90;2.60;;;;;;;6.22;100.00;99372.44;5044596;28;20032;-81
2023/01/09 07:03:26;;;;;;;7.80;2.13;;;;;;;6.25;100.00;99379.19;5046630;28;20124;-81
2023/01/09 07:06:12;;;;;;;10.70;2.50;;;;;;;6.28;100.00;99378.94;5044932;28;20044;-82
2023/01/09 07:08:37;;;;;;;8.80;2.13;;;;;;;6.27;100.00;99382.50;5038414;28;20041;-82
2023/01/09 07:11:03;;;;;;;7.05;2.15;;;;;;;6.29;100.00;99386.66;5023596;28;20028;-82
2023/01/09 07:13:29;;;;;;;10.88;2.55;;;;;;;6.27;100.00;99387.75;5032927;28;20045;-82
2023/01/09 07:15:57;;;;;;;9.88;2.55;;;;;;;6.26;100.00;99391.31;5031483;28;20030;-83
2023/01/09 07:18:40;;;;;;;12.75;2.95;;;;;;;6.26;100.00;99399.13;5034141;28;20036;-83
2023/01/09 07:21:08;;;;;;;7.25;2.30;;;;;;;6.20;100.00;99400.47;5046153;28;20037;-83
2023/01/09 07:23:36;;;;;;;7.53;2.45;;;;;;;6.17;100.00;99405.94;5049607;28;20090;-83
2023/01/09 07:26:05;;;;;;;12.68;2.58;;;;;;;6.17;100.00;99413.75;5034861;28;20032;-84
2023/01/09 07:31:31;;;;;;;10.35;2.65;;;;;;;6.12;100.00;99423.75;5020924;28;20029;-83
2023/01/09 07:38:10;;;;;;;9.27;2.60;;;;;;;6.10;100.00;99433.47;5027687;28;20713;-83
2023/01/09 07:40:42;;;;;;;12.32;2.78;;;;;;;6.06;100.00;99434.66;5047536;28;20508;-83
2023/01/09 07:43:25;;;;;;;10.25;2.63;;;;;;;6.07;100.00;99435.50;5058305;28;20049;-82
2023/01/09 07:45:50;;;;;;;8.30;2.50;;;;;;;6.03;100.00;99442.75;5054944;28;20084;-82
2023/01/09 07:48:25;;;;;;;11.20;2.78;;;;;;;6.03;100.00;99441.91;5050636;28;20433;-82
2023/01/09 07:50:53;;;;;;;7.72;2.60;;;;;;;6.05;100.00;99448.66;5053506;28;20029;-83
2023/01/09 07:53:26;;;;;;;11.88;2.90;;;;;;;6.03;100.00;99458.41;5049926;28;20033;-83
2023/01/09 07:55:51;;;;;;;;;;;;;;;6.10;100.00;99456.97;5032962;28;20519;-83
2023/01/09 07:58:16;;;;;;;10.68;2.70;;;;;;;6.07;100.00;99454.59;5050962;28;19913;-82
2023/01/09 08:00:45;;;;;;;10.93;2.70;;;;;;;6.07;100.00;99459.00;5064372;28;20032;-83
2023/01/09 08:03:13;;;;;;;11.00;3.00;;;;;;;6.06;100.00;99462.56;5050871;28;20076;-84
2023/01/09 08:05:38;;;;;;;14.10;3.30;;;;;;;6.05;100.00;99466.94;5067299;28;20043;-83
2023/01/09 08:08:05;;;;;;;8.65;2.90;;;;;;;6.04;100.00;99470.50;5052908;28;20032;-82
2023/01/09 08:10:31;;;;;;;10.98;3.05;;;;;;;6.04;100.00;99472.28;5070930;28;20048;-83
2023/01/09 08:12:56;;;;;;;10.13;2.95;;;;;;;6.06;100.00;99473.00;5052835;28;20517;-83
2023/01/09 08:15:22;;;;;;;9.75;3.50;;;;;;;6.03;100.00;99478.47;5052577;28;20401;-81
2023/01/09 08:17:50;;;;;;;10.18;3.00;;;;;;;6.02;100.00;99482.84;5055711;28;20045;-82
2023/01/09 08:20:19;;;;;;;10.10;3.15;;;;;;;6.03;100.00;99494.94;5050087;28;20036;-81
2023/01/09 08:22:48;;;;;;;10.60;3.10;;;;;;;6.03;100.00;99494.13;5047786;28;20619;-83
2023/01/09 08:25:14;;;;;;;6.43;2.83;;;;;;;6.04;100.00;99501.00;5032633;28;20029;-83
2023/01/09 08:27:40;;;;;;;10.77;3.53;;;;;;;6.03;100.00;99500.19;5032123;28;20029;-81
2023/01/09 08:30:06;;;;;;;9.60;3.25;;;;;;;6.07;100.00;99508.59;5032548;28;20099;-81
2023/01/09 08:32:31;;;;;;;9.35;2.92;;;;;;;6.06;100.00;99520.81;5050469;28;20033;-81
2023/01/09 08:34:56;;;;;;;8.07;2.80;;;;;;;6.07;100.00;99527.72;5045749;28;20032;-80
2023/01/09 08:37:22;;;;;;;10.45;3.45;;;;;;;6.09;100.00;99531.03;5056054;28;20437;-80
2023/01/09 08:39:47;;;;;;;8.50;2.85;;;;;;;6.07;100.00;99529.50;5057211;28;20124;-80
2023/01/09 08:47:40;;;;;;;8.90;3.42;;;;;;;6.07;100.00;99535.53;5048525;28;20112;-81
2023/01/09 08:50:07;;;;;;;9.40;3.25;;;;;;;6.08;100.00;99542.44;5049377;28;20548;-82
2023/01/09 08:52:32;;;;;;;10.68;3.22;;;;;;;6.07;100.00;99542.53;5049384;28;20120;-81
2023/01/09 08:55:25;;;;;;;10.10;3.15;;;;;;;6.08;100.00;99555.47;5049391;28;20124;-81
2023/01/09 08:57:52;;;;;;;9.60;3.33;;;;;;;6.01;100.00;99554.28;5047690;28;20568;-81
2023/01/09 09:00:23;;;;;;;9.52;3.20;;;;;;;6.01;100.00;99574.34;5045989;28;20060;-81
2023/01/09 09:03:00;;;;;;;11.45;3.35;;;;;;;5.98;100.00;99575.38;5045854;28;20037;-81
2023/01/09 09:05:28;;;;;;;9.32;3.42;;;;;;;5.97;100.00;99574.53;5045390;28;20024;-81
2023/01/09 09:07:55;;;;;;;9.70;3.10;;;;;;;6.00;100.00;99585.69;5048196;28;20461;-81
2023/01/09 09:10:23;;;;;;;9.57;3.22;;;;;;;6.00;100.00;99591.75;5032623;28;20106;-81
2023/01/09 09:12:57;;;;;;;7.80;3.20;;;;;;;6.01;100.00;99595.22;5067522;28;20024;-81
2023/01/09 09:15:24;;;;;;;9.70;3.00;;;;;;;6.01;100.00;99596.06;5068704;28;20046;-81
2023/01/09 09:18:05;;;;;;;9.60;3.60;;;;;;;6.03;100.00;99609.84;5044185;28;20037;-82
2023/01/09 09:20:33;;;;;;;9.70;3.25;;;;;;;6.04;100.00;99611.50;5069927;28;20501;-82
2023/01/09 09:23:08;;;;;;;11.50;3.28;;;;;;;6.07;100.00;99616.47;5069894;28;20024;-82
2023/01/09 09:25:34;;;;;;;11.18;3.80;;;;;;;6.06;100.00;99617.44;5056295;28;20044;-84
2023/01/09 09:27:59;;;;;;;9.52;3.85;;;;;;;6.06;100.00;99622.66;5050705;28;20418;-84
2023/01/09 09:30:25;;;;;;;9.43;3.58;;;;;;;6.05;100.00;99620.16;5047724;28;20036;-83
2023/01/09 09:32:50;;;;;;;7.20;3.40;;;;;;;6.05;100.00;99639.28;5048539;28;20036;-84
2023/01/09 09:35:19;;;;;;;9.45;3.90;;;;;;;6.03;100.00;99630.72;5048214;28;20037;-83
2023/01/09 09:38:10;;;;;;;8.88;3.63;;;;;;;6.07;100.00;99642.59;5048727;28;20036;-82
2023/01/09 09:40:41;;;;;;;9.23;3.58;;;;;;;6.04;100.00;99647.22;5069715;28;20043;-82
2023/01/09 09:47:28;;;;;;;10.27;3.90;;;;;;;6.09;100.00;99660.75;5067151;28;20046;-81
2023/01/09 09:50:23;;;;;;;9.98;3.90;;;;;;;6.10;100.00;99668.47;4958030;28;20034;-81
2023/01/09 09:52:57;;;;;;;10.90;3.85;;;;;;;6.11;100.00;99675.38;4976227;28;20344;-81
2023/01/09 09:55:38;;;;;;;10.23;4.55;;;;;;;6.12;100.00;99679.63;5049016;28;20382;-81
2023/01/09 09:58:51;;;;;;;9.80;4.60;;;;;;;6.16;100.00;99699.34;5040560;28;20033;-80
2023/01/09 10:01:21;;;;;;;12.80;4.82;;;;;;;6.16;100.00;99688.91;5064092;28;20040;-81
2023/01/09 10:03:54;;;;;;;9.55;4.60;;;;;;;6.20;100.00;99694.72;5073443;28;20039;-80
2023/01/09 10:06:24;;;;;;;11.07;5.28;;;;;;;6.22;100.00;99714.56;5069996;28;20063;-80
2023/01/09 10:09:04;;;;;;;12.10;5.30;;;;;;;6.26;100.00;99709.94;5044752;28;20098;-80
2023/01/09 10:11:41;;;;;;;14.38;5.20;;;;;;;6.31;100.00;99730.50;5070939;28;20075;-81
2023/01/09 10:14:12;;;;;;;17.20;5.65;;;;;;;6.34;100.00;99732.88;5071952;28;20608;-82
2023/01/09 10:17:03;;;;;;;12.30;5.18;;;;;;;6.39;100.00;99726.34;5045142;28;20405;-82
2023/01/09 10:19:53;;;;;;;12.90;5.30;;;;;;;6.40;100.00;99733.25;5064877;28;20044;-81
2023/01/09 10:22:46;;;;;;;9.90;5.22;;;;;;;6.40;100.00;99732.41;5053497;28;20040;-81
2023/01/09 10:25:33;;;;;;;11.45;5.43;;;;;;;6.42;100.00;99741.84;5071006;28;20036;-81
2023/01/09 10:28:30;;;;;;;11.80;5.30;;;;;;;6.40;100.00;99746.31;5053721;28;20040;-81
2023/01/09 10:31:28;;;;;;;11.60;5.68;;;;;;;6.46;100.00;99750.28;5056452;28;20036;-81
2023/01/09 10:34:12;;;;;;;13.40;5.10;;;;;;;6.45;100.00;99757.28;5070360;28;20036;-81
2023/01/09 10:37:16;;;;;;;9.63;5.18;;;;;;;6.46;100.00;99752.88;5053091;28;20040;-83
2023/01/09 10:40:04;;;;;;;13.20;5.43;;;;;;;6.49;100.00;99757.88;5073021;28;20481;-81
2023/01/09 10:42:46;;;;;;;8.55;4.70;;;;;;;6.47;100.00;99754.56;5063824;28;20052;-81
2023/01/09 10:45:27;;;;;;;8.98;4.63;;;;;;;6.49;100.00;99760.50;5032723;28;20077;-80
2023/01/09 10:48:07;;;;;;;11.30;4.57;;;;;;;6.46;100.00;99753.72;5069650;28;20123;-80
2023/01/09 10:50:36;;;;;;;10.18;4.85;;;;;;;6.48;100.00;99761.44;5055348;28;20111;-80
2023/01/09 10:53:19;;;;;;;9.88;4.53;;;;;;;6.48;100.00;99757.06;5055426;28;20377;-79
2023/01/09 10:55:46;;;;;;;16.48;5.70;;;;;;;6.46;100.00;99769.41;5054454;28;20488;-80
2023/01/09 10:58:17;;;;;;;12.60;4.88;;;;;;;6.51;100.00;99769.06;5045051;28;20025;-81
2023/01/09 11:00:44;;;;;;;12.00;5.78;;;;;;;6.61;100.00;99767.41;5052089;28;20037;-81
2023/01/09 11:03:14;;;;;;;8.48;4.43;;;;;;;6.66;100.00;99767.06;5053239;28;20025;-82
2023/01/09 11:05:40;;;;;;;12.60;4.82;;;;;;;6.66;100.00;99770.50;5053731;28;20032;-83
2023/01/09 11:08:29;;;;;;;10.25;4.65;;;;;;;6.67;100.00;99781.78;5056961;28;20044;-80
2023/01/09 11:10:57;;;;;;;8.90;4.35;;;;;;;6.60;100.00;99770.97;5031364;28;20029;-80
2023/01/09 11:13:29;;;;;;;9.32;4.75;;;;;;;6.63;100.00;99775.97;5035843;28;20083;-80
2023/01/09 11:16:07;;;;;;;10.80;5.10;;;;;;;6.66;100.00;99775.72;5047509;28;20510;-80
2023/01/09 11:18:47;;;;;;;12.10;5.18;;;;;;;6.65;100.00;99774.06;5062052;28;20600;-80
2023/01/09 11:21:34;;;;;;;12.30;5.35;;;;;;;6.69;100.00;99774.66;5029599;28;20172;-80
2023/01/09 11:24:21;;;;;;;12.07;5.57;;;;;;;6.73;100.00;99776.94;5051895;28;20451;-80
2023/01/09 11:27:12;;;;;;;10.90;5.63;;;;;;;6.79;100.00;99780.88;5035892;28;20049;-81
2023/01/09 11:29:39;;;;;;;11.52;5.95;;;;;;;6.80;100.00;99788.59;5039360;28;20090;-78
2023/01/09 11:32:05;;;;;;;12.23;6.18;;;;;;;6.87;100.00;99792.44;5053757;28;20033;-78
2023/01/09 11:34:35;;;;;;;13.50;5.65;;;;;;;7.01;100.00;99798.41;5071007;28;20040;-78
2023/01/09 11:37:10;;;;;;;10.68;5.53;;;;;;;7.07;100.00;99800.53;5071314;28;20079;-78
2023/01/09 11:45:22;;;;;;;13.15;5.35;;;;;;;7.04;100.00;99816.47;5052171;28;20568;-78
2023/01/09 11:47:47;;;;;;;12.93;5.60;;;;;;;7.08;100.00;99817.91;5053297;28;20045;-79
2023/01/09 11:50:26;;;;;;;16.58;6.20;;;;;;;7.13;100.00;99823.59;5050150;28;20035;-79
2023/01/09 11:53:12;;;;;;;12.60;5.80;;;;;;;7.18;100.00;99829.31;5033911;28;20033;-79
2023/01/09 11:55:45;;;;;;;13.40;5.50;;;;;;;7.11;100.00;99822.91;5059694;28;20040;-79
2023/01/09 11:58:14;;;;;;;12.88;5.72;;;;;;;7.04;100.00;99827.75;5038939;28;20552;-79
2023/01/09 12:00:55;;;;;;;11.43;5.80;;;;;;;7.07;100.00;99821.47;5059780;28;20044;-79
2023/01/09 12:03:30;;;;;;;13.50;6.18;;;;;;;7.10;100.00;99816.81;5030778;28;20041;-79
2023/01/09 12:06:31;;;;;;;11.23;5.88;;;;;;;7.14;100.00;99820.88;5029939;28;20029;-79
2023/01/09 12:09:02;;;;;;;12.80;5.68;;;;;;;7.19;100.00;99825.75;5028700;28;20474;-80
2023/01/09 12:11:37;;;;;;;14.52;5.65;;;;;;;7.17;100.00;99825.88;5070807;28;20043;-80
2023/01/09 12:14:02;;;;;;;9.98;5.40;;;;;;;7.18;100.00;99824.09;5044891;28;20036;-79
2023/01/09 12:16:35;;;;;;;10.60;5.10;;;;;;;7.19;100.00;99829.19;5050609;28;20080;-79
2023/01/09 12:19:36;;;;;;;11.70;4.75;;;;;;;7.24;100.00;99828.88;5050584;28;20036;-78
2023/01/09 12:22:24;;;;;;;11.43;4.57;;;;;;;7.27;100.00;99833.88;5069858;28;20025;-79
2023/01/09 12:25:17;;;;;;;11.45;5.03;;;;;;;7.15;100.00;99832.16;5067934;28;20041;-79
2023/01/09 12:28:15;;;;;;;10.55;4.72;;;;;;;7.14;100.00;99833.94;5054950;28;20099;-78
2023/01/09 12:31:19;;;;;;;10.70;4.57;;;;;;;7.03;100.00;99833.94;5048139;28;20048;-78
2023/01/09 12:37:26;;;;;;;12.52;5.47;;;;;;;7.03;100.00;99840.94;5065216;28;20064;-78
2023/01/09 12:40:01;;;;;;;11.63;5.88;;;;;;;7.11;100.00;99839.41;5069376;28;20072;-80
2023/01/09 12:42:42;;;;;;;9.63;5.70;;;;;;;7.24;100.00;99844.56;5069513;28;20040;-79
2023/01/09 12:45:32;;;;;;;13.25;6.35;;;;;;;7.36;100.00;99846.25;5070045;28;20043;-79
2023/01/09 12:48:26;;;;;;;15.20;6.60;;;;;;;7.53;100.00;99835.28;5057283;28;20044;-78
2023/01/09 12:51:39;;;;;;;9.70;5.97;;;;;;;7.69;100.00;99839.34;5065362;28;20032;-79
2023/01/09 12:54:25;;;;;;;13.60;6.03;;;;;;;7.65;100.00;99844.00;5059950;28;20094;-79
2023/01/09 12:57:23;;;;;;;12.50;5.90;;;;;;;7.66;100.00;99847.47;5053325;28;20504;-79
2023/01/09 12:59:55;;;;;;;12.10;5.78;;;;;;;7.63;100.00;99855.56;5009327;28;20053;-79
2023/01/09 13:02:40;;;;;;;14.25;6.03;;;;;;;7.64;100.00;99858.03;5065642;28;20478;-79
2023/01/09 13:05:17;;;;;;;9.57;5.80;;;;;;;7.60;100.00;99855.75;5065096;28;20029;-79
2023/01/09 13:08:06;;;;;;;11.88;5.38;;;;;;;7.64;100.00;99858.03;5054933;28;20541;-79
2023/01/09 13:10:38;;;;;;;11.88;5.93;;;;;;;7.67;100.00;99868.28;5062405;28;20549;-82
2023/01/09 13:13:12;;;;;;;13.30;5.60;;;;;;;7.64;100.00;99875.53;5045782;28;20485;-83
2023/01/09 13:15:49;;;;;;;12.35;5.70;;;;;;;7.59;100.00;99881.09;5051464;28;20040;-81
2023/01/09 13:18:45;;;;;;;11.90;5.57;;;;;;;7.54;100.00;99884.06;5048300;28;20108;-81
2023/01/09 13:21:12;;;;;;;11.20;5.60;;;;;;;7.42;100.00;99885.03;5043677;28;20044;-80
2023/01/09 13:24:08;;;;;;;11.18;4.85;;;;;;;7.41;100.00;99896.44;5027186;28;20043;-81
2023/01/09 13:26:42;;;;;;;9.68;5.18;;;;;;;7.40;100.00;99907.88;5039101;28;20041;-80
2023/01/09 13:29:21;;;;;;;10.55;5.43;;;;;;;7.38;100.00;99915.00;5049106;28;20125;-80
2023/01/09 13:32:27;;;;;;;11.05;5.45;;;;;;;7.37;100.00;99908.09;5049929;28;20155;-80
2023/01/09 13:35:00;;;;;;;7.50;5.57;;;;;;;7.38;100.00;99909.75;5060165;28;20039;-79
2023/01/09 13:37:34;;;;;;;9.45;6.13;;;;;;;7.42;100.00;99910.38;5048007;28;20477;-80
2023/01/09 13:40:00;;;;;;;10.05;6.90;;;;;;;7.42;100.00;99911.19;5029552;28;20048;-81
2023/01/09 13:42:34;;;;;;;12.63;7.07;;;;;;;7.46;100.00;99912.63;5035270;28;20047;-81
2023/01/09 13:45:26;;;;;;;11.32;7.20;;;;;;;7.50;100.00;99924.53;5044841;28;20136;-81
2023/01/09 13:48:31;;;;;;;17.88;8.38;;;;;;;7.54;100.00;99930.34;5012094;28;20075;-81
2023/01/09 13:51:38;;;;;;;15.43;8.80;;;;;;;7.54;100.00;99930.34;5028464;28;20501;-82
2023/01/09 13:54:47;;;;;;;18.08;9.45;;;;;;;7.53;100.00;99934.75;5011458;28;20068;-80
2023/01/09 14:04:12;;;;;;;16.48;9.90;;;;;;;7.64;100.00;99956.69;4889956;29;20043;-81
2023/01/09 14:21:53;;;;;;;18.38;9.88;;;;;;;7.58;100.00;100001.63;4875372;29;20128;-81
2023/01/09 14:28:07;;;;;;;17.95;9.55;;;;;;;7.50;100.00;100013.50;4942791;28;20058;-81
2023/01/09 14:30:37;;;;;;;16.75;8.93;;;;;;;7.45;100.00;100018.25;5014373;28;20545;-83
2023/01/09 14:33:26;;;;;;;18.48;8.55;;;;;;;7.44;100.00;100023.59;5006413;28;20037;-82
2023/01/09 14:36:15;;;;;;;13.68;8.15;;;;;;;7.42;100.00;100035.97;5006098;28;20486;-82
2023/01/09 14:39:15;;;;;;;17.48;7.68;;;;;;;7.37;100.00;100038.94;5044438;28;20061;-81
2023/01/09 14:42:24;;;;;;;18.38;9.18;;;;;;;7.35;100.00;100040.00;5046734;28;20041;-81
2023/01/09 14:45:05;;;;;;;17.60;8.48;;;;;;;7.27;100.00;100053.66;5005339;28;20049;-82
2023/01/09 14:47:38;;;;;;;18.80;8.00;;;;;;;7.19;100.00;100061.19;5019869;28;20041;-83
2023/01/09 14:50:16;;;;;;;19.70;8.57;;;;;;;7.12;100.00;100059.97;5051787;28;20036;-82
2023/01/09 14:53:14;;;;;;;15.30;8.10;;;;;;;7.08;100.00;100069.00;5051838;28;20029;-82
2023/01/09 14:58:41;;;;;;;19.38;8.48;;;;;;;7.00;100.00;100087.00;5036093;28;20026;-81
2023/01/09 15:01:15;;;;;;;16.10;7.20;;;;;;;6.97;100.00;100102.94;5050807;28;20474;-81
2023/01/09 15:04:00;;;;;;;14.18;5.43;;;;;;;6.95;100.00;100104.81;5046252;28;20041;-81